Time;durP1;ratioP1;P1;durP2;ratioP2;P2;SDS_P1;SDS_P2;PMS_P1;PMS_P2;Temp;Humidity;BMP_temperature;BMP_pressure;BME280_temperature;BME280_humidity;BME280_pressure;Samples;Min_cycle;Max_cycle;Signal;HPM_P1;HPM_P2
2021/05/09 00:01:21;;;;;;;58.20;3.53;;;8.80;59.00;;;;;;5114344;28;20505;-66
2021/05/09 00:03:47;;;;;;;57.83;2.87;;;8.70;55.40;;;;;;5113610;28;20447;-65
2021/05/09 00:06:15;;;;;;;57.63;2.70;;;8.60;54.80;;;;;;5114097;28;21006;-65
2021/05/09 00:08:42;;;;;;;57.67;3.20;;;8.60;64.70;;;;;;5113320;28;20925;-65
2021/05/09 00:11:09;;;;;;;58.47;3.80;;;8.60;54.70;;;;;;5113981;28;20477;-65
2021/05/09 00:13:35;;;;;;;59.70;3.43;;;8.50;61.00;;;;;;5112544;28;20526;-65
2021/05/09 00:16:01;;;;;;;57.88;2.60;;;8.50;63.60;;;;;;5113847;28;20534;-65
2021/05/09 00:18:28;;;;;;;58.17;3.33;;;8.40;67.90;;;;;;5114188;28;20241;-65
2021/05/09 00:20:55;;;;;;;57.60;2.50;;;8.40;71.60;;;;;;5113812;28;20474;-65
2021/05/09 00:23:22;;;;;;;57.67;2.57;;;8.40;71.50;;;;;;5113102;28;20542;-65
2021/05/09 00:25:50;;;;;;;57.90;2.70;;;8.40;76.00;;;;;;5113433;28;20493;-65
2021/05/09 00:28:16;;;;;;;57.73;2.90;;;8.40;78.20;;;;;;5113577;28;20486;-65
2021/05/09 00:30:42;;;;;;;57.57;2.60;;;8.40;80.30;;;;;;5113769;28;20553;-65
2021/05/09 00:33:09;;;;;;;57.47;2.50;;;8.40;82.80;;;;;;5113085;28;20869;-65
2021/05/09 00:35:36;;;;;;;57.78;2.90;;;8.40;83.70;;;;;;5112981;28;20448;-66
2021/05/09 00:38:02;;;;;;;57.90;2.97;;;8.40;82.30;;;;;;5112731;28;20684;-66
2021/05/09 00:40:29;;;;;;;57.77;2.60;;;8.30;82.50;;;;;;5113277;28;20506;-66
2021/05/09 00:42:57;;;;;;;57.63;2.60;;;8.30;82.00;;;;;;5113051;28;21004;-66
2021/05/09 00:45:23;;;;;;;58.20;3.23;;;8.30;82.10;;;;;;5112940;28;20452;-65
2021/05/09 00:47:50;;;;;;;57.80;3.00;;;8.30;83.00;;;;;;5113251;28;20862;-65
2021/05/09 00:50:18;;;;;;;57.57;2.60;;;8.30;82.80;;;;;;5113002;28;20476;-65
2021/05/09 00:52:47;;;;;;;57.57;2.80;;;8.20;83.70;;;;;;5112357;28;20473;-66
2021/05/09 00:55:14;;;;;;;57.53;2.60;;;8.20;85.80;;;;;;5113051;28;20796;-65
2021/05/09 00:57:42;;;;;;;57.80;2.60;;;8.20;86.30;;;;;;5113294;28;20892;-66
2021/05/09 01:00:11;;;;;;;58.38;3.65;;;8.20;89.60;;;;;;5112746;28;20541;-65
2021/05/09 01:02:40;;;;;;;61.20;3.37;;;8.20;88.10;;;;;;5112473;28;20206;-65
2021/05/09 01:05:08;;;;;;;57.43;2.90;;;8.20;88.20;;;;;;5112316;28;20446;-65
2021/05/09 01:07:35;;;;;;;57.67;2.33;;;8.20;89.10;;;;;;5112726;28;20478;-65
2021/05/09 01:10:01;;;;;;;58.20;3.00;;;8.20;90.20;;;;;;5112682;28;20971;-65
2021/05/09 01:12:27;;;;;;;57.70;2.80;;;8.20;90.00;;;;;;5112165;28;20205;-65
2021/05/09 01:14:54;;;;;;;57.90;2.90;;;8.20;91.20;;;;;;5112337;28;20480;-65
2021/05/09 01:17:21;;;;;;;57.53;2.60;;;8.20;91.00;;;;;;5112607;28;20763;-65
2021/05/09 01:19:48;;;;;;;57.88;2.90;;;8.20;90.40;;;;;;5112415;28;20504;-65
2021/05/09 01:22:15;;;;;;;58.20;3.40;;;8.20;90.40;;;;;;5112205;28;20261;-66
2021/05/09 01:24:41;;;;;;;57.43;2.60;;;8.20;90.10;;;;;;5112019;28;20521;-66
2021/05/09 01:27:08;;;;;;;57.70;2.57;;;8.10;88.90;;;;;;5112165;28;20483;-65
2021/05/09 01:29:35;;;;;;;58.00;2.80;;;8.10;88.80;;;;;;5112287;27;20541;-65
2021/05/09 01:32:03;;;;;;;58.53;3.63;;;8.10;86.60;;;;;;5111839;28;20971;-66
2021/05/09 01:34:34;;;;;;;58.47;4.13;;;8.00;85.20;;;;;;5112461;28;20534;-65
2021/05/09 01:37:01;;;;;;;57.78;3.00;;;8.00;86.90;;;;;;5112077;28;20500;-65
2021/05/09 01:39:28;;;;;;;60.50;5.20;;;8.00;86.00;;;;;;5111931;28;20236;-65
2021/05/09 01:41:56;;;;;;;60.93;4.03;;;7.90;84.70;;;;;;5111840;28;20557;-65
2021/05/09 01:44:22;;;;;;;58.80;3.70;;;7.90;86.40;;;;;;5111992;28;20478;-65
2021/05/09 01:46:49;;;;;;;57.80;2.90;;;7.90;87.00;;;;;;5111728;28;20478;-65
2021/05/09 01:49:15;;;;;;;60.40;3.20;;;7.80;87.50;;;;;;5112093;28;20230;-65
2021/05/09 01:51:41;;;;;;;58.77;3.53;;;7.80;88.20;;;;;;5112024;28;20474;-65
2021/05/09 01:54:08;;;;;;;58.27;3.90;;;7.80;87.70;;;;;;5111466;28;20489;-65
2021/05/09 01:56:35;;;;;;;57.95;3.20;;;7.80;92.10;;;;;;5111857;28;20443;-65
2021/05/09 01:59:01;;;;;;;57.97;3.10;;;7.80;93.70;;;;;;5112003;28;20291;-66
2021/05/09 02:01:27;;;;;;;57.78;2.70;;;7.80;94.70;;;;;;5111785;28;20506;-66
2021/05/09 02:03:54;;;;;;;57.95;2.83;;;7.80;99.20;;;;;;5111530;28;20345;-66
2021/05/09 02:06:20;;;;;;;57.67;2.80;;;7.80;98.60;;;;;;5111900;28;20299;-66
2021/05/09 02:08:47;;;;;;;57.97;3.23;;;7.80;98.90;;;;;;5111604;28;20232;-65
2021/05/09 02:11:13;;;;;;;57.95;2.83;;;7.80;99.10;;;;;;5111757;28;20471;-65
2021/05/09 02:13:40;;;;;;;58.58;4.43;;;7.80;99.00;;;;;;5111193;28;20296;-65
2021/05/09 02:16:06;;;;;;;57.78;2.67;;;7.80;97.90;;;;;;5112051;28;20261;-66
2021/05/09 02:18:34;;;;;;;57.90;2.83;;;7.80;98.20;;;;;;5112020;28;20232;-66
2021/05/09 02:21:00;;;;;;;58.30;3.10;;;7.90;97.90;;;;;;5111520;28;20550;-66
2021/05/09 02:23:26;;;;;;;58.00;3.13;;;7.80;98.00;;;;;;5111238;28;20346;-66
2021/05/09 02:25:52;;;;;;;57.80;2.50;;;7.90;97.50;;;;;;5111580;28;20526;-66
2021/05/09 02:28:19;;;;;;;58.28;3.25;;;7.90;97.20;;;;;;5111508;28;20484;-66
2021/05/09 02:30:46;;;;;;;57.47;2.67;;;7.90;96.30;;;;;;5111759;28;20256;-66
2021/05/09 02:33:12;;;;;;;58.17;2.70;;;7.90;97.30;;;;;;5111532;28;20259;-66
2021/05/09 02:35:39;;;;;;;58.63;2.60;;;7.90;97.50;;;;;;5111690;28;20219;-66
2021/05/09 02:38:05;;;;;;;57.57;2.70;;;7.90;97.40;;;;;;5114373;28;20438;-65
2021/05/09 02:40:32;;;;;;;58.10;3.53;;;7.90;97.20;;;;;;5115271;28;20585;-65
2021/05/09 02:42:58;;;;;;;57.58;2.60;;;7.90;97.40;;;;;;5115178;28;20240;-66
2021/05/09 02:45:25;;;;;;;58.80;3.15;;;7.80;97.10;;;;;;5115456;28;20210;-66
2021/05/09 02:47:52;;;;;;;58.67;2.73;;;7.80;97.10;;;;;;5115209;28;20728;-66
2021/05/09 02:50:18;;;;;;;57.70;2.80;;;7.80;96.80;;;;;;5115790;28;21040;-66
2021/05/09 02:52:44;;;;;;;57.63;2.50;;;7.80;97.10;;;;;;5115152;28;20524;-65
2021/05/09 02:55:12;;;;;;;57.85;3.00;;;7.80;98.90;;;;;;5115505;28;20572;-66
2021/05/09 02:57:38;;;;;;;57.70;2.50;;;7.80;97.20;;;;;;5115020;28;20673;-66
2021/05/09 03:00:06;;;;;;;57.57;2.43;;;7.80;96.60;;;;;;5115115;28;20242;-65
2021/05/09 03:02:33;;;;;;;57.33;2.70;;;7.80;97.10;;;;;;5114775;28;20479;-65
2021/05/09 03:05:00;;;;;;;57.70;2.80;;;7.80;98.90;;;;;;5114938;27;21012;-65
2021/05/09 03:07:26;;;;;;;57.47;2.80;;;7.80;96.90;;;;;;5115110;28;20359;-65
2021/05/09 03:09:52;;;;;;;57.67;2.60;;;7.80;97.10;;;;;;5114615;28;20445;-66
2021/05/09 03:12:19;;;;;;;58.00;2.90;;;7.70;96.70;;;;;;5114578;28;20307;-66
2021/05/09 03:14:45;;;;;;;57.90;3.22;;;7.70;95.70;;;;;;5115004;28;20241;-65
2021/05/09 03:17:11;;;;;;;58.05;3.25;;;7.80;96.60;;;;;;5114751;28;20300;-65
2021/05/09 03:19:38;;;;;;;57.78;2.47;;;7.70;97.00;;;;;;5115354;28;20295;-66
2021/05/09 03:22:05;;;;;;;57.90;2.60;;;7.70;96.10;;;;;;5114341;28;20260;-66
2021/05/09 03:24:33;;;;;;;57.30;2.40;;;7.70;96.10;;;;;;5115037;28;20632;-66
2021/05/09 03:27:00;;;;;;;57.73;2.60;;;7.60;97.00;;;;;;5115113;28;20541;-66
2021/05/09 03:29:26;;;;;;;57.65;2.45;;;7.60;97.00;;;;;;5114749;28;20477;-66
2021/05/09 03:31:52;;;;;;;57.70;2.70;;;7.70;97.40;;;;;;5114168;28;20232;-66
2021/05/09 03:34:19;;;;;;;57.47;2.58;;;7.60;97.40;;;;;;5114460;28;20311;-66
2021/05/09 03:36:45;;;;;;;57.70;2.60;;;7.60;97.00;;;;;;5114582;28;20287;-65
2021/05/09 03:39:12;;;;;;;57.97;2.60;;;7.60;97.10;;;;;;5114245;28;20239;-65
2021/05/09 03:41:39;;;;;;;57.47;2.47;;;7.60;97.50;;;;;;5114054;28;20261;-66
2021/05/09 03:44:06;;;;;;;57.92;3.00;;;7.60;99.90;;;;;;5114002;28;20446;-66
2021/05/09 03:46:33;;;;;;;58.77;3.23;;;7.60;99.90;;;;;;5114430;28;20207;-66
2021/05/09 03:48:59;;;;;;;57.63;2.47;;;7.60;99.90;;;;;;5114126;28;20561;-65
2021/05/09 03:51:26;;;;;;;57.80;2.70;;;7.60;99.90;;;;;;5114338;28;20562;-65
2021/05/09 03:53:52;;;;;;;57.80;2.70;;;7.50;97.10;;;;;;5113655;28;20211;-65
2021/05/09 03:56:19;;;;;;;57.57;2.40;;;7.50;99.90;;;;;;5114207;28;20248;-67
2021/05/09 03:58:45;;;;;;;57.67;2.70;;;7.50;99.90;;;;;;5113944;28;20529;-66
2021/05/09 04:01:12;;;;;;;57.75;2.80;;;7.50;99.90;;;;;;5113980;28;20625;-67
2021/05/09 04:03:38;;;;;;;57.47;2.47;;;7.50;99.90;;;;;;5113545;28;20261;-66
2021/05/09 04:06:05;;;;;;;58.17;2.75;;;7.60;99.90;;;;;;5113803;28;20947;-66
2021/05/09 04:08:31;;;;;;;57.67;2.40;;;7.60;99.90;;;;;;5113682;28;20600;-67
2021/05/09 04:11:00;;;;;;;57.47;2.60;;;7.60;99.90;;;;;;5113706;28;20220;-66
2021/05/09 04:13:27;;;;;;;57.50;2.50;;;7.60;99.90;;;;;;5113427;28;20462;-66
2021/05/09 04:15:53;;;;;;;57.58;2.70;;;7.60;99.90;;;;;;5113529;28;20518;-67
2021/05/09 04:18:20;;;;;;;57.60;2.33;;;7.60;99.90;;;;;;5113635;28;20204;-66
2021/05/09 04:20:46;;;;;;;57.33;2.50;;;7.70;99.20;;;;;;5113785;28;20222;-66
2021/05/09 04:23:14;;;;;;;57.58;2.58;;;7.70;99.90;;;;;;5113226;28;20448;-67
2021/05/09 04:25:41;;;;;;;57.40;2.40;;;7.70;98.40;;;;;;5113459;28;20254;-66
2021/05/09 04:28:08;;;;;;;57.58;2.67;;;7.70;99.90;;;;;;5113824;28;20482;-67
2021/05/09 04:30:35;;;;;;;57.57;2.50;;;7.70;99.90;;;;;;5113273;28;20235;-67
2021/05/09 04:33:03;;;;;;;57.43;2.40;;;7.70;99.70;;;;;;5112964;28;20456;-67
2021/05/09 04:35:30;;;;;;;57.43;2.53;;;7.70;98.60;;;;;;5113046;28;20535;-67
2021/05/09 04:37:57;;;;;;;58.67;3.00;;;7.80;99.90;;;;;;5113350;28;20526;-66
2021/05/09 04:40:24;;;;;;;58.00;2.90;;;7.90;99.90;;;;;;5113207;28;20267;-66
2021/05/09 04:42:50;;;;;;;57.37;2.40;;;7.90;99.90;;;;;;5112419;28;20205;-66
2021/05/09 04:45:17;;;;;;;57.93;2.77;;;8.00;99.90;;;;;;5112913;28;20496;-66
2021/05/09 04:47:44;;;;;;;57.47;2.43;;;8.10;99.90;;;;;;5113180;28;20485;-66
2021/05/09 04:50:12;;;;;;;57.50;2.33;;;8.10;99.90;;;;;;5113527;28;20451;-67
2021/05/09 04:52:39;;;;;;;57.50;2.53;;;8.20;99.90;;;;;;5112553;28;20461;-67
2021/05/09 04:55:07;;;;;;;57.50;2.53;;;8.30;99.90;;;;;;5113014;28;20443;-67
2021/05/09 04:57:34;;;;;;;57.43;2.57;;;8.30;99.90;;;;;;5112899;28;20446;-66
2021/05/09 05:00:01;;;;;;;57.47;2.70;;;8.40;99.90;;;;;;5112406;28;20838;-67
2021/05/09 05:02:27;;;;;;;57.60;2.60;;;8.40;99.90;;;;;;5112479;28;20530;-66
2021/05/09 05:04:54;;;;;;;57.50;2.60;;;8.50;99.90;;;;;;5112481;28;20451;-67
2021/05/09 05:07:21;;;;;;;57.67;2.63;;;8.50;99.90;;;;;;5112792;28;20448;-66
2021/05/09 05:09:47;;;;;;;58.10;3.20;;;8.50;99.90;;;;;;5112928;28;20565;-67
2021/05/09 05:12:14;;;;;;;57.57;2.70;;;8.60;99.90;;;;;;5112474;28;20560;-64
2021/05/09 05:14:40;;;;;;;57.57;2.70;;;8.60;99.90;;;;;;5112429;28;20486;-64
2021/05/09 05:17:07;;;;;;;57.80;3.00;;;8.70;99.90;;;;;;5112127;28;20547;-66
2021/05/09 05:19:33;;;;;;;57.60;2.90;;;8.70;99.90;;;;;;5112860;28;20535;-64
2021/05/09 05:22:01;;;;;;;57.47;2.90;;;8.80;99.90;;;;;;5112160;28;20919;-67
2021/05/09 05:24:27;;;;;;;57.60;2.60;;;8.80;99.90;;;;;;5112190;28;20995;-66
2021/05/09 05:26:54;;;;;;;57.57;2.70;;;8.80;99.90;;;;;;5112297;28;21011;-65
2021/05/09 05:29:21;;;;;;;57.57;2.70;;;8.90;99.90;;;;;;5112395;28;20485;-67
2021/05/09 05:31:50;;;;;;;57.23;2.53;;;9.00;99.90;;;;;;5112017;28;20516;-67
2021/05/09 05:34:16;;;;;;;57.53;2.70;;;9.00;99.90;;;;;;5112258;28;20452;-65
2021/05/09 05:36:42;;;;;;;57.60;2.73;;;9.10;99.20;;;;;;5112468;28;20641;-64
2021/05/09 05:39:10;;;;;;;57.53;2.70;;;9.20;97.50;;;;;;5112241;28;20452;-66
2021/05/09 05:41:36;;;;;;;58.47;2.93;;;9.20;95.70;;;;;;5112071;28;20563;-66
2021/05/09 05:44:03;;;;;;;57.50;2.40;;;9.20;96.40;;;;;;5111329;28;20452;-65
2021/05/09 05:46:30;;;;;;;57.47;2.60;;;9.30;97.50;;;;;;5112204;28;20467;-65
2021/05/09 05:48:56;;;;;;;57.37;2.40;;;9.40;94.20;;;;;;5112176;28;20552;-66
2021/05/09 05:51:23;;;;;;;57.17;2.17;;;9.50;95.40;;;;;;5111964;28;20609;-66
2021/05/09 05:53:54;;;;;;;57.50;2.67;;;9.50;94.50;;;;;;5111449;28;21037;-65
2021/05/09 05:56:21;;;;;;;57.43;2.40;;;9.50;94.80;;;;;;5111991;28;20454;-66
2021/05/09 05:58:47;;;;;;;57.27;2.40;;;9.50;95.60;;;;;;5111639;28;20888;-66
2021/05/09 06:01:13;;;;;;;57.37;2.47;;;9.50;93.00;;;;;;5111956;28;20626;-66
2021/05/09 06:03:40;;;;;;;57.80;2.50;;;9.50;91.80;;;;;;5111258;28;20536;-65
2021/05/09 06:06:06;;;;;;;57.50;2.40;;;9.50;92.60;;;;;;5111808;28;20513;-64
2021/05/09 06:08:32;;;;;;;57.50;2.47;;;9.50;93.00;;;;;;5111996;28;20490;-65
2021/05/09 06:10:59;;;;;;;57.40;2.40;;;9.50;92.60;;;;;;5111814;28;20560;-65
2021/05/09 06:13:27;;;;;;;57.27;2.53;;;9.60;91.00;;;;;;5114044;28;20532;-65
2021/05/09 06:15:54;;;;;;;57.23;2.40;;;9.60;91.50;;;;;;5116029;28;20454;-64
2021/05/09 06:18:20;;;;;;;57.40;2.53;;;9.70;91.60;;;;;;5116115;28;20528;-65
2021/05/09 06:20:47;;;;;;;57.47;2.40;;;9.70;92.80;;;;;;5115855;28;21023;-65
2021/05/09 06:23:18;;;;;;;57.63;2.57;;;9.80;90.80;;;;;;5115636;28;20831;-65
2021/05/09 06:25:44;;;;;;;57.20;2.40;;;9.90;90.10;;;;;;5115730;28;20452;-65
2021/05/09 06:28:11;;;;;;;57.47;2.37;;;10.00;89.60;;;;;;5115917;28;20483;-65
2021/05/09 06:30:38;;;;;;;57.70;2.80;;;10.20;88.20;;;;;;5115623;28;20464;-65
2021/05/09 06:33:05;;;;;;;57.67;2.80;;;10.30;85.80;;;;;;5115775;28;20575;-64
2021/05/09 06:35:36;;;;;;;58.00;2.83;;;10.40;84.40;;;;;;5115427;28;20480;-65
2021/05/09 06:38:02;;;;;;;57.57;2.67;;;10.50;81.80;;;;;;5115757;28;20489;-65
2021/05/09 06:40:28;;;;;;;57.57;2.60;;;10.70;74.10;;;;;;5115294;28;20516;-65
2021/05/09 06:42:56;;;;;;;57.53;2.70;;;10.90;72.50;;;;;;5115374;28;20458;-65
2021/05/09 06:45:26;;;;;;;57.67;2.50;;;11.00;72.10;;;;;;5115396;28;20452;-65
2021/05/09 06:47:53;;;;;;;57.57;2.53;;;11.20;67.30;;;;;;5115664;28;20504;-65
2021/05/09 06:50:20;;;;;;;57.30;2.50;;;11.40;69.30;;;;;;5115474;28;20837;-65
2021/05/09 06:52:47;;;;;;;57.40;2.57;;;11.60;67.50;;;;;;5115089;28;20824;-65
2021/05/09 06:55:14;;;;;;;58.20;3.10;;;11.70;62.50;;;;;;5115465;28;20445;-65
2021/05/09 06:57:41;;;;;;;57.50;2.60;;;11.90;61.20;;;;;;5115258;28;20487;-65
2021/05/09 07:00:09;;;;;;;57.50;2.60;;;12.10;58.40;;;;;;5115607;28;20540;-64
2021/05/09 07:02:36;;;;;;;57.57;2.50;;;12.20;56.10;;;;;;5114926;28;20937;-65
2021/05/09 07:05:04;;;;;;;57.23;2.30;;;12.40;46.20;;;;;;5115603;28;20540;-65
2021/05/09 07:07:30;;;;;;;58.57;2.93;;;12.60;41.60;;;;;;5115235;28;20525;-66
2021/05/09 07:09:57;;;;;;;57.43;2.60;;;12.70;32.60;;;;;;5115136;28;20488;-65
2021/05/09 07:12:23;;;;;;;57.20;2.40;;;12.90;23.30;;;;;;5114893;28;20488;-65
2021/05/09 07:14:49;;;;;;;57.40;2.30;;;13.10;19.00;;;;;;5114325;28;20865;-65
2021/05/09 07:17:16;;;;;;;57.80;2.90;;;13.30;13.90;;;;;;5115053;28;20561;-66
2021/05/09 07:19:45;;;;;;;57.23;2.17;;;13.50;14.80;;;;;;5114710;28;20452;-66
2021/05/09 07:22:15;;;;;;;57.37;2.57;;;13.70;13.20;;;;;;5114371;28;20469;-66
2021/05/09 07:24:44;;;;;;;58.97;3.07;;;13.90;11.90;;;;;;5114708;28;20460;-66
2021/05/09 07:27:11;;;;;;;57.37;2.60;;;14.20;7.60;;;;;;5115014;28;20503;-66
2021/05/09 07:29:37;;;;;;;58.10;3.53;;;14.40;1.00;;;;;;5114772;28;20575;-66
2021/05/09 07:32:04;;;;;;;57.47;2.50;;;14.60;1.00;;;;;;5114238;28;20549;-67
2021/05/09 07:34:30;;;;;;;58.83;2.80;;;14.80;1.00;;;;;;5114618;28;20802;-66
2021/05/09 07:36:56;;;;;;;57.50;2.63;;;15.10;1.00;;;;;;5114963;28;20976;-67
2021/05/09 07:39:24;;;;;;;57.57;2.60;;;15.30;1.00;;;;;;5114659;28;20441;-66
2021/05/09 07:41:50;;;;;;;57.40;2.77;;;15.60;1.00;;;;;;5113903;28;20549;-67
2021/05/09 07:44:16;;;;;;;57.13;2.30;;;15.80;1.00;;;;;;5114099;28;20473;-64
2021/05/09 07:46:43;;;;;;;58.00;2.37;;;16.10;1.00;;;;;;5114423;28;20458;-64
2021/05/09 07:49:09;;;;;;;57.17;2.37;;;16.30;1.00;;;;;;5114609;28;20851;-64
2021/05/09 07:51:35;;;;;;;57.47;2.70;;;16.50;1.00;;;;;;5114478;28;20470;-66
2021/05/09 07:54:02;;;;;;;57.37;2.20;;;16.80;1.00;;;;;;5113914;28;20537;-64
2021/05/09 07:56:29;;;;;;;57.53;2.27;;;17.00;1.00;;;;;;5114245;28;20534;-66
2021/05/09 07:58:55;;;;;;;57.37;2.33;;;17.30;1.00;;;;;;5114264;28;20472;-67
2021/05/09 08:01:22;;;;;;;57.43;2.50;;;17.50;1.00;;;;;;5114164;28;20880;-64
2021/05/09 08:03:48;;;;;;;57.80;2.50;;;17.80;1.00;;;;;;5113625;28;20465;-66
2021/05/09 08:06:14;;;;;;;57.53;2.70;;;18.10;1.00;;;;;;5114087;28;20536;-66
2021/05/09 08:08:41;;;;;;;57.80;3.03;;;18.40;1.00;;;;;;5113971;28;20483;-64
2021/05/09 08:11:07;;;;;;;57.60;2.30;;;18.70;1.00;;;;;;5114263;28;20905;-64
2021/05/09 08:13:34;;;;;;;57.30;2.30;;;18.90;1.00;;;;;;5113548;28;20444;-65
2021/05/09 08:16:00;;;;;;;57.40;2.60;;;19.20;1.00;;;;;;5113325;28;20445;-66
2021/05/09 08:18:28;;;;;;;57.27;2.30;;;19.40;1.00;;;;;;5113518;28;20598;-66
2021/05/09 08:20:56;;;;;;;57.40;2.30;;;19.70;1.00;;;;;;5113958;28;20504;-66
2021/05/09 08:23:22;;;;;;;58.43;2.70;;;19.80;1.00;;;;;;5113444;28;20503;-65
2021/05/09 08:25:49;;;;;;;57.30;2.40;;;20.10;1.00;;;;;;5113454;28;20451;-65
2021/05/09 08:28:16;;;;;;;57.03;2.30;;;20.20;1.00;;;;;;5113523;28;20828;-64
2021/05/09 08:30:43;;;;;;;57.50;2.30;;;20.40;1.00;;;;;;5113585;28;20478;-66
2021/05/09 08:33:09;;;;;;;57.57;2.23;;;20.60;1.00;;;;;;5113174;28;20445;-66
2021/05/09 08:35:36;;;;;;;57.40;2.30;;;20.80;1.00;;;;;;5112564;28;20495;-65
2021/05/09 08:38:04;;;;;;;57.00;2.23;;;21.00;1.00;;;;;;5113586;28;20534;-66
2021/05/09 08:40:31;;;;;;;57.37;2.40;;;21.30;1.00;;;;;;5113285;28;20494;-65
2021/05/09 08:42:57;;;;;;;56.97;2.40;;;21.40;1.00;;;;;;5112938;28;20531;-66
2021/05/09 08:45:24;;;;;;;57.40;2.20;;;21.60;1.00;;;;;;5112733;28;20915;-66
2021/05/09 08:47:53;;;;;;;57.33;2.43;;;21.80;1.00;;;;;;5113647;28;20940;-65
2021/05/09 08:50:21;;;;;;;56.50;2.30;;;22.00;1.00;;;;;;5113131;28;20534;-65
2021/05/09 08:52:50;;;;;;;56.93;2.40;;;22.20;1.00;;;;;;5112831;28;20491;-66
2021/05/09 08:55:18;;;;;;;57.17;2.30;;;22.30;1.00;;;;;;5112271;28;20441;-65
2021/05/09 08:57:44;;;;;;;57.43;2.27;;;22.50;1.00;;;;;;5112681;28;20571;-65
2021/05/09 09:00:12;;;;;;;57.03;2.40;;;22.70;1.00;;;;;;5112361;28;20957;-65
2021/05/09 09:02:40;;;;;;;58.20;2.40;;;22.80;1.00;;;;;;5112837;28;20481;-66
2021/05/09 09:05:08;;;;;;;57.20;2.10;;;23.10;1.00;;;;;;5112693;28;20448;-66
2021/05/09 09:07:46;;;;;;;57.30;2.20;;;23.20;1.00;;;;;;5113340;28;20474;-65
2021/05/09 09:10:29;;;;;;;57.37;2.27;;;23.40;1.00;;;;;;5112629;28;20454;-66
2021/05/09 09:12:55;;;;;;;56.93;2.00;;;23.70;1.00;;;;;;5112724;28;20820;-67
2021/05/09 09:15:21;;;;;;;57.17;2.27;;;23.90;1.00;;;;;;5112688;28;20532;-66
2021/05/09 09:17:48;;;;;;;57.27;2.20;;;24.10;1.00;;;;;;5112639;28;20558;-66
2021/05/09 09:20:17;;;;;;;58.27;2.40;;;24.30;1.00;;;;;;5112821;28;20542;-66
2021/05/09 09:23:03;;;;;;;57.27;2.07;;;24.50;1.00;;;;;;5112276;28;20836;-67
2021/05/09 09:25:31;;;;;;;57.30;2.00;;;24.70;1.00;;;;;;5112333;28;20468;-66
2021/05/09 09:27:59;;;;;;;57.07;2.00;;;24.90;1.00;;;;;;5112513;28;20437;-66
2021/05/09 09:30:27;;;;;;;57.27;2.23;;;25.10;1.00;;;;;;5112616;28;20561;-67
2021/05/09 09:33:14;;;;;;;57.60;2.30;;;25.30;1.00;;;;;;5111901;28;20449;-67
2021/05/09 09:35:43;;;;;;;57.20;2.20;;;25.50;1.00;;;;;;5112045;28;20445;-66
2021/05/09 09:38:30;;;;;;;57.27;2.30;;;25.70;1.00;;;;;;5112361;28;20437;-66
2021/05/09 09:41:10;;;;;;;57.90;2.50;;;25.90;1.00;;;;;;5112140;28;20534;-67
2021/05/09 09:43:37;;;;;;;63.00;6.30;;;26.10;1.00;;;;;;5111725;28;20480;-66
2021/05/09 09:46:23;;;;;;;58.50;3.40;;;26.30;1.00;;;;;;5111999;28;20491;-65
2021/05/09 09:48:50;;;;;;;57.20;2.30;;;26.50;1.00;;;;;;5112044;28;20858;-65
2021/05/09 09:51:17;;;;;;;57.73;2.40;;;26.70;1.00;;;;;;5112134;28;20460;-67
2021/05/09 09:53:44;;;;;;;58.50;2.57;;;26.90;1.00;;;;;;5111663;28;20547;-66
2021/05/09 09:56:12;;;;;;;56.97;2.10;;;27.20;1.00;;;;;;5111972;28;20459;-67
2021/05/09 09:58:44;;;;;;;57.23;2.00;;;27.40;1.00;;;;;;5112433;28;20455;-66
2021/05/09 10:01:12;;;;;;;56.97;1.80;;;27.50;1.00;;;;;;5112031;28;20949;-67
2021/05/09 10:03:39;;;;;;;57.00;1.80;;;27.60;1.00;;;;;;5111539;28;20522;-66
2021/05/09 10:06:06;;;;;;;57.07;2.10;;;27.80;1.00;;;;;;5097821;28;20872;-66
2021/05/09 10:08:34;;;;;;;57.20;2.10;;;27.90;1.00;;;;;;5091434;28;20476;-65
2021/05/09 10:11:01;;;;;;;57.10;1.90;;;28.30;1.00;;;;;;5091191;28;20462;-67
2021/05/09 10:13:29;;;;;;;57.10;2.00;;;29.20;1.00;;;;;;5091378;28;20450;-66
2021/05/09 10:15:55;;;;;;;57.10;2.20;;;30.50;1.00;;;;;;5091551;28;20526;-66
2021/05/09 10:18:23;;;;;;;57.20;2.03;;;31.70;1.00;;;;;;5091727;28;20443;-66
2021/05/09 10:20:49;;;;;;;57.00;2.20;;;32.60;1.00;;;;;;5091438;28;20471;-66
2021/05/09 10:23:18;;;;;;;57.50;2.13;;;33.30;1.00;;;;;;5091032;28;20488;-66
2021/05/09 10:25:47;;;;;;;56.90;2.00;;;33.40;1.00;;;;;;5091405;28;20872;-66
2021/05/09 10:28:14;;;;;;;56.93;2.13;;;33.30;1.00;;;;;;5091209;28;20994;-67
2021/05/09 10:30:47;;;;;;;56.83;2.10;;;33.70;1.00;;;;;;5091454;28;20462;-66
2021/05/09 10:33:44;;;;;;;56.77;2.03;;;34.10;1.00;;;;;;5091139;28;20446;-67
2021/05/09 10:36:39;;;;;;;56.73;2.00;;;34.60;1.00;;;;;;5101301;28;20442;-66
2021/05/09 10:39:08;;;;;;;56.80;2.10;;;35.40;1.00;;;;;;5102490;27;20541;-66
2021/05/09 10:41:36;;;;;;;56.77;2.00;;;35.80;1.00;;;;;;5111571;28;20548;-67
2021/05/09 10:44:41;;;;;;;56.50;1.90;;;36.20;1.00;;;;;;5111112;28;20441;-67
2021/05/09 10:47:13;;;;;;;56.37;2.07;;;36.40;1.00;;;;;;5111663;28;20811;-67
2021/05/09 10:50:22;;;;;;;56.80;2.20;;;36.60;1.00;;;;;;5111526;28;20482;-66
2021/05/09 10:52:50;;;;;;;56.77;2.10;;;36.60;1.00;;;;;;5111813;28;20510;-66
2021/05/09 10:55:39;;;;;;;56.60;2.00;;;36.80;1.00;;;;;;5111381;28;20543;-66
2021/05/09 10:58:07;;;;;;;56.47;1.90;;;37.20;1.00;;;;;;5112167;28;20449;-66
2021/05/09 11:01:13;;;;;;;56.60;2.00;;;37.60;1.00;;;;;;5115339;28;20556;-66
2021/05/09 11:03:47;;;;;;;56.47;1.90;;;37.70;1.00;;;;;;5103228;27;20536;-66
2021/05/09 11:06:15;;;;;;;56.80;2.33;;;37.80;1.00;;;;;;5115265;28;20449;-66
2021/05/09 11:08:59;;;;;;;57.67;1.97;;;37.70;1.00;;;;;;5115220;28;20512;-66
2021/05/09 11:12:03;;;;;;;56.47;1.90;;;37.90;1.00;;;;;;5114957;28;20461;-66
2021/05/09 11:14:35;;;;;;;56.23;1.90;;;37.70;1.00;;;;;;5114913;28;20586;-66
2021/05/09 11:17:04;;;;;;;56.20;2.00;;;38.00;1.00;;;;;;5114755;28;20489;-64
2021/05/09 11:19:39;;;;;;;56.60;2.13;;;38.30;1.00;;;;;;5115044;28;20574;-65
2021/05/09 11:22:06;;;;;;;56.50;1.97;;;38.50;1.00;;;;;;5114457;28;20555;-65
2021/05/09 11:24:35;;;;;;;56.60;2.03;;;38.50;1.00;;;;;;5114859;28;20457;-65
2021/05/09 11:27:07;;;;;;;56.47;2.10;;;38.70;1.00;;;;;;5114855;28;20992;-67
2021/05/09 11:29:35;;;;;;;56.37;1.73;;;38.70;1.00;;;;;;5114809;28;20541;-67
2021/05/09 11:32:07;;;;;;;56.40;1.90;;;38.80;1.00;;;;;;5114220;28;20855;-66
2021/05/09 11:34:34;;;;;;;57.03;2.53;;;39.00;1.00;;;;;;5114831;28;20441;-66
2021/05/09 11:37:00;;;;;;;57.17;2.50;;;39.10;1.00;;;;;;5114610;28;20539;-66
2021/05/09 11:39:38;;;;;;;56.17;1.87;;;39.30;1.00;;;;;;5114456;28;20576;-66
2021/05/09 11:42:07;;;;;;;56.20;1.87;;;40.10;1.00;;;;;;5114118;28;20504;-66
2021/05/09 11:44:37;;;;;;;56.27;1.90;;;40.70;1.00;;;;;;5114625;28;20450;-66
2021/05/09 11:47:06;;;;;;;56.20;2.20;;;41.00;1.00;;;;;;5114243;28;20492;-66
2021/05/09 11:49:34;;;;;;;56.27;1.90;;;40.90;1.00;;;;;;5114333;28;20437;-66
2021/05/09 11:52:02;;;;;;;56.60;1.87;;;40.60;1.00;;;;;;5113778;28;20469;-66
2021/05/09 11:54:30;;;;;;;56.27;2.00;;;40.30;1.00;;;;;;5114307;28;20964;-66
2021/05/09 11:56:59;;;;;;;56.30;2.00;;;39.90;1.00;;;;;;5114144;28;20865;-66
2021/05/09 11:59:33;;;;;;;56.50;2.30;;;40.10;1.00;;;;;;5114261;28;20786;-66
2021/05/09 12:02:02;;;;;;;58.30;2.07;;;40.70;1.00;;;;;;5114122;28;20548;-66
2021/05/09 12:04:30;;;;;;;56.60;2.03;;;40.70;1.00;;;;;;5113982;28;20446;-67
2021/05/09 12:06:58;;;;;;;56.07;2.20;;;40.50;1.00;;;;;;5114021;28;20824;-66
2021/05/09 12:09:24;;;;;;;56.20;1.80;;;41.00;1.00;;;;;;5112962;28;20904;-66
2021/05/09 12:11:51;;;;;;;56.30;2.10;;;41.50;1.00;;;;;;5112859;28;20569;-66
2021/05/09 12:14:18;;;;;;;56.27;1.90;;;41.50;1.00;;;;;;5113834;28;20499;-67
2021/05/09 12:16:45;;;;;;;56.03;1.77;;;41.60;1.00;;;;;;5113807;28;20485;-66
2021/05/09 12:19:13;;;;;;;56.07;2.10;;;41.90;1.00;;;;;;5113717;28;20580;-67
2021/05/09 12:21:53;;;;;;;56.20;2.00;;;42.00;1.00;;;;;;5113867;28;20497;-66
2021/05/09 12:24:19;;;;;;;55.93;2.00;;;41.60;1.00;;;;;;5113310;28;20540;-66
2021/05/09 12:26:56;;;;;;;56.17;2.07;;;41.50;1.00;;;;;;5113592;28;20446;-66
2021/05/09 12:29:22;;;;;;;56.30;2.00;;;41.80;1.00;;;;;;5113562;28;20529;-67
2021/05/09 12:31:49;;;;;;;55.87;2.07;;;42.00;1.00;;;;;;5113539;28;20553;-66
2021/05/09 12:34:25;;;;;;;56.07;1.97;;;41.90;1.00;;;;;;5113321;28;20528;-66
2021/05/09 12:37:08;;;;;;;56.57;2.60;;;41.60;1.00;;;;;;5113281;28;20446;-66
2021/05/09 12:39:35;;;;;;;56.60;2.50;;;41.50;1.00;;;;;;5113397;28;20481;-66
2021/05/09 12:42:02;;;;;;;56.30;2.00;;;41.50;1.00;;;;;;5113080;28;20896;-66
2021/05/09 12:44:29;;;;;;;56.63;2.30;;;41.40;1.00;;;;;;5113176;28;20450;-66
2021/05/09 12:46:55;;;;;;;56.40;2.20;;;41.30;1.00;;;;;;5113367;28;20468;-66
2021/05/09 12:49:26;;;;;;;56.70;2.27;;;41.60;1.00;;;;;;5113143;28;20447;-66
2021/05/09 12:52:04;;;;;;;56.47;2.10;;;41.80;1.00;;;;;;5112766;28;21007;-66